• Join FlightAware (Why Join?)
  • Login
  • US Flag 
02:14AM EST


 

Airport Tracker/Info


-or-


 

Live Flight TrackerFlight Track Log ✈ N5639Z ✈ 06-Jul-2013 ✈ KCGF - KCGF

Flight Track Log - Related Links

Times and Time Zones

All times are in EDT time to prevent confusion due to time zone crossing. See the N5639Z flight status page for this flight to view local times or setup timezone preferences in your user account.

Time Position Orientation Groundspeed Altitude Reporting Facility
EDT Latitude Longitude Course Direction KTS MPH feet Rate Location/Type
02:54PM 41.5581 -81.5017 184° South 102 117 1,300  Level Cleveland Center
02:55PM 41.5331 -81.5042 184° South 112 129 2,200 835 Climbing Cleveland Center
02:56PM 41.5144 -81.4733 129° Southeast 113 130 2,900 397 Climbing Cleveland Center
02:57PM 41.5397 -81.4403 44° Northeast 158 182 3,000 50 Climbing Cleveland Center
02:58PM 41.5756 -81.4047 37° Northeast 148 170 3,000  Level Cleveland Center
02:59PM 41.6133 -81.3803 26° Northeast 153 176 3,000  Level Cleveland Center
03:00PM 41.6489 -81.3528 30° Northeast 154 177 3,000  Level Cleveland Center
03:01PM 41.6867 -81.3256 28° Northeast 150 173 3,000  Level Cleveland Center
03:02PM 41.7200 -81.2953 34° Northeast 153 176 3,000  Level Cleveland Center
03:03PM 41.7558 -81.2678 30° Northeast 153 176 3,000  Level Cleveland Center
03:04PM 41.7914 -81.2403 30° Northeast 144 166 3,000  Level Cleveland Center
03:05PM 41.8247 -81.2183 26° Northeast 133 153 3,000  Level Cleveland Center
03:06PM 41.8603 -81.1992 22° Northeast 126 145 3,000  Level Cleveland Center
03:07PM 41.8436 -81.1881 154° Southeast 111 128 3,000  Level Cleveland Center
03:08PM 41.8206 -81.2156 222° Southwest 112 129 3,000  Level Cleveland Center
03:09PM 41.7975 -81.2461 225° Southwest 117 135 3,000 -43 Level Cleveland Center
03:10PM 41.7681 -81.2792 220° Southwest 111 128 2,900 -343 Descending Cleveland Center
03:11PM 41.7492 -81.3094 230° Southwest 107 123 2,200 -661 Descending Cleveland Center
03:12PM 41.7283 -81.3317 219° Southwest 108 124 1,700 -550 Descending Cleveland Center
03:13PM 41.7072 -81.3592 224° Southwest 110 127 1,200 -237 Descending Cleveland Center
03:14PM 41.6778 -81.4006 226° Southwest 100 115 1,100 207 Descending Cleveland Center
03:15PM 41.6589 -81.4281 227° Southwest 113 130 1,700 730 Climbing Cleveland Center
03:16PM 41.6794 -81.4478 324° Northwest 112 129 2,500 639 Climbing Cleveland Center
03:17PM 41.7108 -81.4342 18° North 127 146 3,000 275 Climbing Cleveland Center
03:18PM 41.7089 -81.3981 94° East 140 161 3,000  Level Cleveland Center
03:19PM 41.6756 -81.4089 194° South 127 146 3,000  Level Cleveland Center